sensor_id;sensor_type;location;lat;lon;timestamp;pressure;altitude;pressure_sealevel;temperature;humidity
20119;BME280;10220;42.716;23.306;2022-07-17T00:00:16;95602.56;;;23.08;100.00
20119;BME280;10220;42.716;23.306;2022-07-17T00:02:42;95612.75;;;23.49;100.00
20119;BME280;10220;42.716;23.306;2022-07-17T00:05:08;95622.31;;;23.40;100.00
20119;BME280;10220;42.716;23.306;2022-07-17T00:07:33;95607.28;;;23.31;100.00
20119;BME280;10220;42.716;23.306;2022-07-17T00:09:59;95621.91;;;23.66;100.00
20119;BME280;10220;42.716;23.306;2022-07-17T00:12:25;95616.84;;;23.80;100.00
20119;BME280;10220;42.716;23.306;2022-07-17T00:14:50;95637.41;;;23.93;100.00
20119;BME280;10220;42.716;23.306;2022-07-17T00:17:16;95577.50;;;23.68;100.00
20119;BME280;10220;42.716;23.306;2022-07-17T00:19:41;95616.16;;;23.55;100.00
20119;BME280;10220;42.716;23.306;2022-07-17T00:22:07;95632.91;;;23.35;100.00
20119;BME280;10220;42.716;23.306;2022-07-17T00:24:32;95623.78;;;23.71;100.00
20119;BME280;10220;42.716;23.306;2022-07-17T00:26:59;95627.72;;;23.78;100.00
20119;BME280;10220;42.716;23.306;2022-07-17T00:29:24;95645.56;;;23.43;100.00
20119;BME280;10220;42.716;23.306;2022-07-17T00:31:50;95641.53;;;23.61;100.00
20119;BME280;10220;42.716;23.306;2022-07-17T00:34:16;95642.47;;;23.16;100.00
20119;BME280;10220;42.716;23.306;2022-07-17T00:36:42;95638.25;;;22.96;100.00
20119;BME280;10220;42.716;23.306;2022-07-17T00:39:08;95609.22;;;22.66;100.00
20119;BME280;10220;42.716;23.306;2022-07-17T00:41:34;95624.84;;;22.52;100.00
20119;BME280;10220;42.716;23.306;2022-07-17T00:44:10;95638.06;;;22.52;100.00
20119;BME280;10220;42.716;23.306;2022-07-17T00:46:37;95594.97;;;22.22;100.00
20119;BME280;10220;42.716;23.306;2022-07-17T00:49:04;95642.25;;;22.68;100.00
20119;BME280;10220;42.716;23.306;2022-07-17T00:51:30;95642.00;;;22.55;100.00
20119;BME280;10220;42.716;23.306;2022-07-17T00:53:57;95643.34;;;22.52;100.00
20119;BME280;10220;42.716;23.306;2022-07-17T00:56:23;95651.25;;;22.47;100.00
20119;BME280;10220;42.716;23.306;2022-07-17T00:58:49;95651.00;;;22.44;100.00
20119;BME280;10220;42.716;23.306;2022-07-17T01:01:15;95645.72;;;22.69;100.00
20119;BME280;10220;42.716;23.306;2022-07-17T01:03:41;95651.78;;;22.64;100.00
20119;BME280;10220;42.716;23.306;2022-07-17T01:06:07;95621.41;;;22.27;100.00
20119;BME280;10220;42.716;23.306;2022-07-17T01:08:33;95656.44;;;21.98;100.00
20119;BME280;10220;42.716;23.306;2022-07-17T01:10:58;95648.53;;;21.88;100.00
20119;BME280;10220;42.716;23.306;2022-07-17T01:13:24;95649.03;;;21.75;100.00
20119;BME280;10220;42.716;23.306;2022-07-17T01:18:15;95654.88;;;21.97;100.00
20119;BME280;10220;42.716;23.306;2022-07-17T01:20:43;95653.84;;;22.23;100.00
20119;BME280;10220;42.716;23.306;2022-07-17T01:23:09;95630.59;;;22.10;100.00
20119;BME280;10220;42.716;23.306;2022-07-17T01:25:35;95629.81;;;22.14;100.00
20119;BME280;10220;42.716;23.306;2022-07-17T01:28:02;95633.19;;;21.80;100.00
20119;BME280;10220;42.716;23.306;2022-07-17T01:30:28;95629.28;;;22.12;100.00
20119;BME280;10220;42.716;23.306;2022-07-17T01:32:53;95630.84;;;22.03;100.00
20119;BME280;10220;42.716;23.306;2022-07-17T01:35:20;95647.00;;;22.17;100.00
20119;BME280;10220;42.716;23.306;2022-07-17T01:37:45;95628.78;;;22.10;100.00
20119;BME280;10220;42.716;23.306;2022-07-17T01:40:13;95649.38;;;22.23;100.00
20119;BME280;10220;42.716;23.306;2022-07-17T01:42:42;95649.09;;;22.05;100.00
20119;BME280;10220;42.716;23.306;2022-07-17T01:45:08;95611.59;;;21.88;100.00
20119;BME280;10220;42.716;23.306;2022-07-17T01:47:34;95656.75;;;22.06;100.00
20119;BME280;10220;42.716;23.306;2022-07-17T01:50:01;95652.56;;;22.50;100.00
20119;BME280;10220;42.716;23.306;2022-07-17T01:52:27;95634.84;;;22.21;100.00
20119;BME280;10220;42.716;23.306;2022-07-17T01:54:53;95657.81;;;22.15;100.00
20119;BME280;10220;42.716;23.306;2022-07-17T01:57:19;95617.34;;;21.80;100.00
20119;BME280;10220;42.716;23.306;2022-07-17T01:59:44;95655.81;;;21.61;100.00
20119;BME280;10220;42.716;23.306;2022-07-17T02:02:10;95664.03;;;21.65;100.00
20119;BME280;10220;42.716;23.306;2022-07-17T02:04:38;95660.38;;;21.90;100.00
20119;BME280;10220;42.716;23.306;2022-07-17T02:07:04;95661.63;;;21.58;100.00
20119;BME280;10220;42.716;23.306;2022-07-17T02:09:30;95658.00;;;21.74;100.00
20119;BME280;10220;42.716;23.306;2022-07-17T02:11:56;95654.22;;;21.55;100.00
20119;BME280;10220;42.716;23.306;2022-07-17T02:14:22;95646.50;;;21.44;100.00
20119;BME280;10220;42.716;23.306;2022-07-17T02:16:48;95656.47;;;21.37;100.00
20119;BME280;10220;42.716;23.306;2022-07-17T02:19:14;95650.88;;;21.23;100.00
20119;BME280;10220;42.716;23.306;2022-07-17T02:21:39;95662.44;;;21.18;100.00
20119;BME280;10220;42.716;23.306;2022-07-17T02:24:05;95657.06;;;20.98;100.00
20119;BME280;10220;42.716;23.306;2022-07-17T02:26:31;95666.88;;;21.07;100.00
20119;BME280;10220;42.716;23.306;2022-07-17T02:28:57;95667.22;;;21.21;100.00
20119;BME280;10220;42.716;23.306;2022-07-17T02:31:22;95633.69;;;21.06;100.00
20119;BME280;10220;42.716;23.306;2022-07-17T02:33:48;95645.53;;;21.09;100.00
20119;BME280;10220;42.716;23.306;2022-07-17T02:36:13;95611.81;;;20.69;100.00
20119;BME280;10220;42.716;23.306;2022-07-17T02:38:40;95664.41;;;21.37;100.00
20119;BME280;10220;42.716;23.306;2022-07-17T02:41:05;95661.16;;;21.20;100.00
20119;BME280;10220;42.716;23.306;2022-07-17T02:43:31;95669.22;;;21.50;100.00
20119;BME280;10220;42.716;23.306;2022-07-17T02:45:57;95680.69;;;21.80;100.00
20119;BME280;10220;42.716;23.306;2022-07-17T02:48:22;95682.81;;;21.27;100.00
20119;BME280;10220;42.716;23.306;2022-07-17T02:50:48;95620.44;;;20.96;100.00
20119;BME280;10220;42.716;23.306;2022-07-17T02:53:13;95681.72;;;21.18;100.00
20119;BME280;10220;42.716;23.306;2022-07-17T02:55:39;95656.00;;;20.94;100.00
20119;BME280;10220;42.716;23.306;2022-07-17T02:58:04;95658.69;;;21.04;100.00
20119;BME280;10220;42.716;23.306;2022-07-17T03:00:30;95653.50;;;20.77;100.00
20119;BME280;10220;42.716;23.306;2022-07-17T03:02:56;95676.78;;;20.90;100.00
20119;BME280;10220;42.716;23.306;2022-07-17T03:05:22;95680.09;;;21.12;100.00
20119;BME280;10220;42.716;23.306;2022-07-17T03:07:47;95664.44;;;20.96;100.00
20119;BME280;10220;42.716;23.306;2022-07-17T03:10:13;95674.25;;;21.51;100.00
20119;BME280;10220;42.716;23.306;2022-07-17T03:12:39;95684.06;;;21.66;100.00
20119;BME280;10220;42.716;23.306;2022-07-17T03:15:05;95696.41;;;21.55;100.00
20119;BME280;10220;42.716;23.306;2022-07-17T03:17:32;95670.94;;;21.29;100.00
20119;BME280;10220;42.716;23.306;2022-07-17T03:19:57;95652.56;;;20.98;100.00
20119;BME280;10220;42.716;23.306;2022-07-17T03:22:23;95703.59;;;21.19;100.00
20119;BME280;10220;42.716;23.306;2022-07-17T03:24:48;95703.50;;;21.04;100.00
20119;BME280;10220;42.716;23.306;2022-07-17T03:27:13;95700.72;;;21.76;100.00
20119;BME280;10220;42.716;23.306;2022-07-17T03:29:39;95689.75;;;22.04;100.00
20119;BME280;10220;42.716;23.306;2022-07-17T03:32:05;95712.63;;;21.83;100.00
20119;BME280;10220;42.716;23.306;2022-07-17T03:34:30;95715.28;;;21.83;100.00
20119;BME280;10220;42.716;23.306;2022-07-17T03:36:56;95720.34;;;22.10;100.00
20119;BME280;10220;42.716;23.306;2022-07-17T03:39:21;95723.50;;;21.46;100.00
20119;BME280;10220;42.716;23.306;2022-07-17T03:41:47;95719.97;;;21.25;100.00
20119;BME280;10220;42.716;23.306;2022-07-17T03:44:12;95718.47;;;21.39;100.00
20119;BME280;10220;42.716;23.306;2022-07-17T03:46:38;95684.94;;;20.89;100.00
20119;BME280;10220;42.716;23.306;2022-07-17T03:49:03;95720.66;;;21.06;100.00
20119;BME280;10220;42.716;23.306;2022-07-17T03:51:29;95716.25;;;21.22;100.00
20119;BME280;10220;42.716;23.306;2022-07-17T03:53:55;95719.56;;;21.07;100.00
20119;BME280;10220;42.716;23.306;2022-07-17T03:56:20;95714.28;;;21.02;100.00
20119;BME280;10220;42.716;23.306;2022-07-17T03:58:45;95742.13;;;21.24;100.00
20119;BME280;10220;42.716;23.306;2022-07-17T04:01:11;95743.03;;;21.09;100.00
20119;BME280;10220;42.716;23.306;2022-07-17T04:03:36;95739.22;;;20.90;100.00
20119;BME280;10220;42.716;23.306;2022-07-17T04:06:02;95723.03;;;21.08;100.00
20119;BME280;10220;42.716;23.306;2022-07-17T04:08:28;95716.97;;;20.76;100.00
20119;BME280;10220;42.716;23.306;2022-07-17T04:10:53;95734.72;;;20.85;100.00
20119;BME280;10220;42.716;23.306;2022-07-17T04:13:19;95746.53;;;21.19;100.00
20119;BME280;10220;42.716;23.306;2022-07-17T04:15:44;95757.75;;;21.41;100.00
20119;BME280;10220;42.716;23.306;2022-07-17T04:18:29;95755.31;;;21.24;100.00
20119;BME280;10220;42.716;23.306;2022-07-17T04:20:57;95756.34;;;21.23;100.00
20119;BME280;10220;42.716;23.306;2022-07-17T04:23:23;95744.69;;;21.15;100.00
20119;BME280;10220;42.716;23.306;2022-07-17T04:25:49;95759.88;;;21.39;100.00
20119;BME280;10220;42.716;23.306;2022-07-17T04:28:14;95764.22;;;21.55;100.00
20119;BME280;10220;42.716;23.306;2022-07-17T04:30:40;95759.47;;;21.57;100.00
20119;BME280;10220;42.716;23.306;2022-07-17T04:33:07;95713.91;;;21.71;100.00
20119;BME280;10220;42.716;23.306;2022-07-17T04:35:33;95759.84;;;22.36;100.00
20119;BME280;10220;42.716;23.306;2022-07-17T04:37:58;95766.69;;;22.42;100.00
20119;BME280;10220;42.716;23.306;2022-07-17T04:40:24;95755.34;;;22.51;100.00
20119;BME280;10220;42.716;23.306;2022-07-17T04:42:49;95770.13;;;22.38;100.00
20119;BME280;10220;42.716;23.306;2022-07-17T04:45:15;95762.22;;;22.43;100.00
20119;BME280;10220;42.716;23.306;2022-07-17T04:47:41;95768.88;;;22.70;100.00
20119;BME280;10220;42.716;23.306;2022-07-17T04:50:07;95788.91;;;22.51;100.00
20119;BME280;10220;42.716;23.306;2022-07-17T04:52:33;95789.47;;;22.73;99.12
20119;BME280;10220;42.716;23.306;2022-07-17T04:54:58;95786.03;;;22.67;100.00
20119;BME280;10220;42.716;23.306;2022-07-17T04:57:24;95788.72;;;22.97;98.64
20119;BME280;10220;42.716;23.306;2022-07-17T04:59:50;95786.31;;;22.96;98.59
20119;BME280;10220;42.716;23.306;2022-07-17T05:02:15;95792.41;;;23.41;96.20
20119;BME280;10220;42.716;23.306;2022-07-17T05:04:40;95797.44;;;23.42;96.59
20119;BME280;10220;42.716;23.306;2022-07-17T05:07:06;95797.13;;;24.51;87.87
20119;BME280;10220;42.716;23.306;2022-07-17T05:09:31;95786.19;;;25.01;84.25
20119;BME280;10220;42.716;23.306;2022-07-17T05:11:57;95798.13;;;25.03;83.25
20119;BME280;10220;42.716;23.306;2022-07-17T05:14:22;95788.66;;;26.10;73.36
20119;BME280;10220;42.716;23.306;2022-07-17T05:16:48;95761.47;;;25.67;68.58
20119;BME280;10220;42.716;23.306;2022-07-17T05:19:13;95796.88;;;25.91;74.93
20119;BME280;10220;42.716;23.306;2022-07-17T05:21:39;95774.34;;;27.22;69.82
20119;BME280;10220;42.716;23.306;2022-07-17T05:24:04;95790.75;;;26.92;68.52
20119;BME280;10220;42.716;23.306;2022-07-17T05:26:30;95793.41;;;27.28;63.81
20119;BME280;10220;42.716;23.306;2022-07-17T05:28:55;95795.78;;;27.62;58.21
20119;BME280;10220;42.716;23.306;2022-07-17T05:31:21;95790.50;;;27.75;55.28
20119;BME280;10220;42.716;23.306;2022-07-17T05:33:46;95792.59;;;28.05;54.57
20119;BME280;10220;42.716;23.306;2022-07-17T05:36:12;95794.69;;;28.21;50.69
20119;BME280;10220;42.716;23.306;2022-07-17T05:38:37;95782.81;;;28.41;51.69
20119;BME280;10220;42.716;23.306;2022-07-17T05:41:03;95791.50;;;27.79;49.42
20119;BME280;10220;42.716;23.306;2022-07-17T05:43:29;95787.03;;;28.82;45.76
20119;BME280;10220;42.716;23.306;2022-07-17T05:45:59;95782.00;;;28.53;49.14
20119;BME280;10220;42.716;23.306;2022-07-17T05:48:25;95793.75;;;29.36;47.80
20119;BME280;10220;42.716;23.306;2022-07-17T05:50:51;95801.22;;;28.15;49.71
20119;BME280;10220;42.716;23.306;2022-07-17T05:53:17;95794.66;;;28.35;49.26
20119;BME280;10220;42.716;23.306;2022-07-17T05:55:42;95782.00;;;29.02;48.03
20119;BME280;10220;42.716;23.306;2022-07-17T05:58:08;95792.13;;;28.30;46.97
20119;BME280;10220;42.716;23.306;2022-07-17T06:00:34;95788.69;;;28.64;47.83
20119;BME280;10220;42.716;23.306;2022-07-17T06:03:00;95796.97;;;29.47;45.01
20119;BME280;10220;42.716;23.306;2022-07-17T06:05:26;95797.72;;;29.39;45.30
20119;BME280;10220;42.716;23.306;2022-07-17T06:07:52;95795.28;;;29.51;45.03
20119;BME280;10220;42.716;23.306;2022-07-17T06:10:18;95802.06;;;30.17;43.32
20119;BME280;10220;42.716;23.306;2022-07-17T06:12:44;95788.88;;;30.21;41.54
20119;BME280;10220;42.716;23.306;2022-07-17T06:15:10;95791.78;;;29.07;44.23
20119;BME280;10220;42.716;23.306;2022-07-17T06:17:35;95786.63;;;29.84;44.43
20119;BME280;10220;42.716;23.306;2022-07-17T06:20:01;95807.78;;;29.85;42.80
20119;BME280;10220;42.716;23.306;2022-07-17T06:22:26;95783.69;;;29.85;42.34
20119;BME280;10220;42.716;23.306;2022-07-17T06:24:52;95806.91;;;29.76;43.48
20119;BME280;10220;42.716;23.306;2022-07-17T06:27:17;95792.44;;;29.12;45.29
20119;BME280;10220;42.716;23.306;2022-07-17T06:29:43;95811.19;;;29.56;44.21
20119;BME280;10220;42.716;23.306;2022-07-17T06:32:08;95809.47;;;28.81;44.53
20119;BME280;10220;42.716;23.306;2022-07-17T06:34:34;95804.16;;;28.41;46.24
20119;BME280;10220;42.716;23.306;2022-07-17T06:36:59;95814.72;;;28.05;47.78
20119;BME280;10220;42.716;23.306;2022-07-17T06:39:25;95810.06;;;27.97;48.55
20119;BME280;10220;42.716;23.306;2022-07-17T06:41:50;95822.63;;;26.78;50.34
20119;BME280;10220;42.716;23.306;2022-07-17T06:44:15;95809.31;;;27.33;50.12
20119;BME280;10220;42.716;23.306;2022-07-17T06:46:41;95811.47;;;27.63;49.29
20119;BME280;10220;42.716;23.306;2022-07-17T06:49:06;95791.88;;;27.41;51.04
20119;BME280;10220;42.716;23.306;2022-07-17T06:51:32;95815.59;;;26.87;52.47
20119;BME280;10220;42.716;23.306;2022-07-17T06:53:57;95818.94;;;26.93;51.41
20119;BME280;10220;42.716;23.306;2022-07-17T06:56:26;95815.38;;;27.21;52.07
20119;BME280;10220;42.716;23.306;2022-07-17T06:58:51;95802.19;;;27.29;50.69
20119;BME280;10220;42.716;23.306;2022-07-17T07:01:16;95813.75;;;27.06;50.58
20119;BME280;10220;42.716;23.306;2022-07-17T07:03:42;95815.47;;;26.97;51.38
20119;BME280;10220;42.716;23.306;2022-07-17T07:06:08;95818.38;;;27.32;52.13
20119;BME280;10220;42.716;23.306;2022-07-17T07:08:34;95817.16;;;26.88;54.06
20119;BME280;10220;42.716;23.306;2022-07-17T07:11:00;95826.31;;;27.01;53.27
20119;BME280;10220;42.716;23.306;2022-07-17T07:13:26;95815.81;;;26.72;55.47
20119;BME280;10220;42.716;23.306;2022-07-17T07:15:52;95824.16;;;26.84;54.85
20119;BME280;10220;42.716;23.306;2022-07-17T07:18:17;95818.22;;;27.24;51.92
20119;BME280;10220;42.716;23.306;2022-07-17T07:20:43;95810.28;;;27.06;54.60
20119;BME280;10220;42.716;23.306;2022-07-17T07:23:08;95801.13;;;26.93;55.45
20119;BME280;10220;42.716;23.306;2022-07-17T07:25:34;95814.34;;;27.67;49.15
20119;BME280;10220;42.716;23.306;2022-07-17T07:27:59;95799.16;;;27.04;51.02
20119;BME280;10220;42.716;23.306;2022-07-17T07:30:25;95812.81;;;27.79;50.44
20119;BME280;10220;42.716;23.306;2022-07-17T07:32:50;95805.22;;;27.86;49.57
20119;BME280;10220;42.716;23.306;2022-07-17T07:35:16;95833.31;;;27.79;48.62
20119;BME280;10220;42.716;23.306;2022-07-17T07:37:41;95835.13;;;27.96;48.37
20119;BME280;10220;42.716;23.306;2022-07-17T07:40:08;95820.25;;;28.62;48.55
20119;BME280;10220;42.716;23.306;2022-07-17T07:42:34;95824.81;;;28.48;47.54
20119;BME280;10220;42.716;23.306;2022-07-17T07:44:59;95820.44;;;27.99;50.05
20119;BME280;10220;42.716;23.306;2022-07-17T07:47:25;95820.53;;;28.47;49.04
20119;BME280;10220;42.716;23.306;2022-07-17T07:49:50;95803.44;;;28.62;49.11
20119;BME280;10220;42.716;23.306;2022-07-17T07:52:16;95822.16;;;28.22;48.49
20119;BME280;10220;42.716;23.306;2022-07-17T07:54:41;95823.03;;;28.17;50.24
20119;BME280;10220;42.716;23.306;2022-07-17T07:57:07;95817.94;;;27.89;47.98
20119;BME280;10220;42.716;23.306;2022-07-17T07:59:32;95831.78;;;27.91;48.82
20119;BME280;10220;42.716;23.306;2022-07-17T08:01:58;95826.03;;;27.52;50.39
20119;BME280;10220;42.716;23.306;2022-07-17T08:04:24;95816.72;;;27.68;51.57
20119;BME280;10220;42.716;23.306;2022-07-17T08:06:49;95815.38;;;27.84;52.54
20119;BME280;10220;42.716;23.306;2022-07-17T08:09:15;95790.16;;;27.31;52.43
20119;BME280;10220;42.716;23.306;2022-07-17T08:11:40;95828.06;;;27.42;49.07
20119;BME280;10220;42.716;23.306;2022-07-17T08:14:06;95822.75;;;27.42;53.48
20119;BME280;10220;42.716;23.306;2022-07-17T08:16:31;95821.44;;;27.58;53.32
20119;BME280;10220;42.716;23.306;2022-07-17T08:18:57;95827.69;;;27.80;52.63
20119;BME280;10220;42.716;23.306;2022-07-17T08:21:22;95816.69;;;28.53;49.65
20119;BME280;10220;42.716;23.306;2022-07-17T08:23:48;95812.44;;;28.66;49.07
20119;BME280;10220;42.716;23.306;2022-07-17T08:26:13;95815.94;;;29.02;47.04
20119;BME280;10220;42.716;23.306;2022-07-17T08:28:39;95826.63;;;29.67;45.48
20119;BME280;10220;42.716;23.306;2022-07-17T08:31:04;95823.16;;;29.36;44.46
20119;BME280;10220;42.716;23.306;2022-07-17T08:33:30;95829.75;;;28.28;45.87
20119;BME280;10220;42.716;23.306;2022-07-17T08:35:55;95818.28;;;28.54;46.05
20119;BME280;10220;42.716;23.306;2022-07-17T08:38:21;95792.84;;;28.22;48.59
20119;BME280;10220;42.716;23.306;2022-07-17T08:40:46;95794.16;;;28.73;47.47
20119;BME280;10220;42.716;23.306;2022-07-17T08:43:14;95813.84;;;29.34;45.50
20119;BME280;10220;42.716;23.306;2022-07-17T08:45:40;95816.41;;;28.55;46.33
20119;BME280;10220;42.716;23.306;2022-07-17T08:48:07;95820.34;;;29.06;45.02
20119;BME280;10220;42.716;23.306;2022-07-17T08:50:37;95819.03;;;29.17;46.41
20119;BME280;10220;42.716;23.306;2022-07-17T08:53:03;95805.03;;;29.33;46.16
20119;BME280;10220;42.716;23.306;2022-07-17T08:55:29;95808.28;;;29.08;47.42
20119;BME280;10220;42.716;23.306;2022-07-17T08:57:54;95807.81;;;29.72;45.94
20119;BME280;10220;42.716;23.306;2022-07-17T09:00:22;95794.91;;;29.96;44.60
20119;BME280;10220;42.716;23.306;2022-07-17T09:03:03;95793.22;;;30.08;41.69
20119;BME280;10220;42.716;23.306;2022-07-17T09:05:34;95795.19;;;29.64;42.76
20119;BME280;10220;42.716;23.306;2022-07-17T09:08:01;95788.50;;;30.05;44.52
20119;BME280;10220;42.716;23.306;2022-07-17T09:10:37;95800.31;;;29.82;43.54
20119;BME280;10220;42.716;23.306;2022-07-17T09:15:39;95786.44;;;29.07;45.67
20119;BME280;10220;42.716;23.306;2022-07-17T09:18:04;95785.00;;;29.74;45.03
20119;BME280;10220;42.716;23.306;2022-07-17T09:20:30;95790.88;;;29.85;43.79
20119;BME280;10220;42.716;23.306;2022-07-17T09:23:02;95779.41;;;29.84;44.00
20119;BME280;10220;42.716;23.306;2022-07-17T09:25:48;95776.94;;;29.88;42.04
20119;BME280;10220;42.716;23.306;2022-07-17T09:28:15;95790.34;;;30.35;41.57
20119;BME280;10220;42.716;23.306;2022-07-17T09:30:43;95799.28;;;30.78;40.74
20119;BME280;10220;42.716;23.306;2022-07-17T09:33:18;95790.16;;;31.12;39.18
20119;BME280;10220;42.716;23.306;2022-07-17T09:36:08;95789.38;;;30.95;38.45
20119;BME280;10220;42.716;23.306;2022-07-17T09:38:39;95802.94;;;31.07;38.24
20119;BME280;10220;42.716;23.306;2022-07-17T09:41:07;95796.78;;;31.06;38.47
20119;BME280;10220;42.716;23.306;2022-07-17T09:43:51;95781.50;;;30.98;38.02
20119;BME280;10220;42.716;23.306;2022-07-17T09:46:22;95796.16;;;31.09;38.21
20119;BME280;10220;42.716;23.306;2022-07-17T09:48:51;95788.59;;;30.94;38.79
20119;BME280;10220;42.716;23.306;2022-07-17T09:51:23;95779.94;;;30.97;37.99
20119;BME280;10220;42.716;23.306;2022-07-17T09:53:51;95787.28;;;30.84;37.83
20119;BME280;10220;42.716;23.306;2022-07-17T09:56:18;95800.03;;;30.87;37.47
20119;BME280;10220;42.716;23.306;2022-07-17T09:58:49;95783.75;;;30.41;38.89
20119;BME280;10220;42.716;23.306;2022-07-17T10:01:15;95794.31;;;30.46;38.73
20119;BME280;10220;42.716;23.306;2022-07-17T10:03:42;95769.78;;;30.44;38.57
20119;BME280;10220;42.716;23.306;2022-07-17T10:06:10;95793.78;;;30.27;38.93
20119;BME280;10220;42.716;23.306;2022-07-17T10:08:36;95787.56;;;30.40;38.81
20119;BME280;10220;42.716;23.306;2022-07-17T10:11:04;95789.09;;;30.41;39.66
20119;BME280;10220;42.716;23.306;2022-07-17T10:13:30;95803.59;;;30.10;38.63
20119;BME280;10220;42.716;23.306;2022-07-17T10:15:56;95788.63;;;29.70;39.65
20119;BME280;10220;42.716;23.306;2022-07-17T10:18:36;95768.44;;;29.64;40.15
20119;BME280;10220;42.716;23.306;2022-07-17T10:21:15;95775.25;;;29.70;40.21
20119;BME280;10220;42.716;23.306;2022-07-17T10:24:04;95762.69;;;29.49;40.00
20119;BME280;10220;42.716;23.306;2022-07-17T10:26:38;95775.59;;;29.47;40.74
20119;BME280;10220;42.716;23.306;2022-07-17T10:29:24;95770.13;;;29.82;40.77
20119;BME280;10220;42.716;23.306;2022-07-17T10:31:52;95784.81;;;29.63;40.14
20119;BME280;10220;42.716;23.306;2022-07-17T10:34:18;95774.72;;;29.60;40.89
20119;BME280;10220;42.716;23.306;2022-07-17T10:36:44;95751.78;;;29.67;40.37
20119;BME280;10220;42.716;23.306;2022-07-17T10:39:28;95772.84;;;29.60;41.97
20119;BME280;10220;42.716;23.306;2022-07-17T10:41:58;95719.13;;;29.78;40.15
20119;BME280;10220;42.716;23.306;2022-07-17T10:44:29;95724.19;;;30.19;40.42
20119;BME280;10220;42.716;23.306;2022-07-17T10:46:57;95765.50;;;30.43;39.14
20119;BME280;10220;42.716;23.306;2022-07-17T10:49:25;95772.13;;;30.07;39.20
20119;BME280;10220;42.716;23.306;2022-07-17T10:51:51;95772.81;;;30.21;40.41
20119;BME280;10220;42.716;23.306;2022-07-17T10:54:19;95774.69;;;30.20;40.23
20119;BME280;10220;42.716;23.306;2022-07-17T10:56:46;95759.59;;;30.16;39.34
20119;BME280;10220;42.716;23.306;2022-07-17T10:59:12;95760.25;;;30.38;40.56
20119;BME280;10220;42.716;23.306;2022-07-17T11:01:38;95769.31;;;30.76;39.39
20119;BME280;10220;42.716;23.306;2022-07-17T11:04:04;95758.63;;;30.76;40.22
20119;BME280;10220;42.716;23.306;2022-07-17T11:06:32;95759.25;;;31.15;39.31
20119;BME280;10220;42.716;23.306;2022-07-17T11:09:04;95740.03;;;31.30;39.70
20119;BME280;10220;42.716;23.306;2022-07-17T11:16:54;95742.75;;;30.96;37.50
20119;BME280;10220;42.716;23.306;2022-07-17T11:19:22;95736.41;;;30.11;40.06
20119;BME280;10220;42.716;23.306;2022-07-17T11:21:48;95743.84;;;31.12;39.60
20119;BME280;10220;42.716;23.306;2022-07-17T11:24:14;95740.81;;;31.47;38.62
20119;BME280;10220;42.716;23.306;2022-07-17T11:26:42;95740.53;;;30.98;39.98
20119;BME280;10220;42.716;23.306;2022-07-17T11:29:07;95739.09;;;30.92;39.59
20119;BME280;10220;42.716;23.306;2022-07-17T11:31:33;95739.41;;;30.74;40.52
20119;BME280;10220;42.716;23.306;2022-07-17T11:34:01;95727.41;;;30.63;40.33
20119;BME280;10220;42.716;23.306;2022-07-17T11:36:32;95736.59;;;30.95;39.42
20119;BME280;10220;42.716;23.306;2022-07-17T11:39:00;95739.25;;;30.70;39.41
20119;BME280;10220;42.716;23.306;2022-07-17T11:41:38;95693.25;;;30.43;40.76
20119;BME280;10220;42.716;23.306;2022-07-17T11:44:09;95724.88;;;30.58;41.90
20119;BME280;10220;42.716;23.306;2022-07-17T11:46:36;95720.50;;;30.53;40.94
20119;BME280;10220;42.716;23.306;2022-07-17T11:49:03;95725.38;;;30.68;41.67
20119;BME280;10220;42.716;23.306;2022-07-17T11:51:41;95712.31;;;30.67;41.91
20119;BME280;10220;42.716;23.306;2022-07-17T11:54:10;95729.94;;;30.59;41.94
20119;BME280;10220;42.716;23.306;2022-07-17T11:56:38;95715.94;;;30.79;41.83
20119;BME280;10220;42.716;23.306;2022-07-17T11:59:04;95705.69;;;30.98;42.14
20119;BME280;10220;42.716;23.306;2022-07-17T12:01:42;95720.16;;;30.63;41.51
20119;BME280;10220;42.716;23.306;2022-07-17T12:04:11;95697.66;;;30.47;42.02
20119;BME280;10220;42.716;23.306;2022-07-17T12:06:36;95675.06;;;30.06;42.41
20119;BME280;10220;42.716;23.306;2022-07-17T12:09:03;95717.88;;;30.15;42.80
20119;BME280;10220;42.716;23.306;2022-07-17T12:11:29;95721.81;;;30.26;42.79
20119;BME280;10220;42.716;23.306;2022-07-17T12:14:03;95691.09;;;29.98;43.04
20119;BME280;10220;42.716;23.306;2022-07-17T12:16:31;95710.75;;;30.02;43.90
20119;BME280;10220;42.716;23.306;2022-07-17T12:19:05;95702.94;;;30.22;42.64
20119;BME280;10220;42.716;23.306;2022-07-17T12:21:52;95720.81;;;29.96;43.78
20119;BME280;10220;42.716;23.306;2022-07-17T12:24:43;95700.91;;;30.36;42.98
20119;BME280;10220;42.716;23.306;2022-07-17T12:27:12;95712.97;;;30.08;41.83
20119;BME280;10220;42.716;23.306;2022-07-17T12:29:37;95708.13;;;30.19;42.79
20119;BME280;10220;42.716;23.306;2022-07-17T12:34:30;95703.88;;;30.09;42.90
20119;BME280;10220;42.716;23.306;2022-07-17T12:36:56;95706.53;;;30.18;43.67
20119;BME280;10220;42.716;23.306;2022-07-17T12:39:21;95708.13;;;30.10;44.34
20119;BME280;10220;42.716;23.306;2022-07-17T12:41:47;95698.38;;;30.14;44.43
20119;BME280;10220;42.716;23.306;2022-07-17T12:44:12;95686.88;;;30.05;44.54
20119;BME280;10220;42.716;23.306;2022-07-17T12:46:38;95704.00;;;30.04;45.98
20119;BME280;10220;42.716;23.306;2022-07-17T12:49:04;95704.03;;;30.21;46.22
20119;BME280;10220;42.716;23.306;2022-07-17T12:51:30;95703.56;;;30.36;46.72
20119;BME280;10220;42.716;23.306;2022-07-17T12:53:56;95655.41;;;30.19;45.59
20119;BME280;10220;42.716;23.306;2022-07-17T12:56:22;95688.63;;;30.27;47.03